Time;durP1;ratioP1;P1;durP2;ratioP2;P2;SDS_P1;SDS_P2;PMS_P1;PMS_P2;Temp;Humidity;BMP_temperature;BMP_pressure;BME280_temperature;BME280_humidity;BME280_pressure;Samples;Min_cycle;Max_cycle;Signal;HPM_P1;HPM_P2
2022/05/19 00:01:23;;;;;;;1.90;1.80;;;26.70;68.40;;;;;;5075278;28;20453;-86
2022/05/19 00:03:49;;;;;;;2.33;2.13;;;26.60;68.50;;;;;;5075058;28;20539;-87
2022/05/19 00:06:16;;;;;;;1.87;1.77;;;26.60;68.50;;;;;;5075207;28;20449;-87
2022/05/19 00:08:43;;;;;;;2.70;2.50;;;26.70;68.50;;;;;;5075068;28;20432;-86
2022/05/19 00:11:14;;;;;;;2.30;2.20;;;26.60;68.50;;;;;;5074861;28;20491;-87
2022/05/19 00:13:41;;;;;;;1.90;1.80;;;26.70;68.50;;;;;;5074797;28;20468;-87
2022/05/19 00:16:08;;;;;;;2.30;2.20;;;26.60;68.40;;;;;;5074867;28;20441;-87
2022/05/19 00:18:36;;;;;;;2.33;2.23;;;26.60;68.50;;;;;;5075006;28;20433;-87
2022/05/19 00:21:03;;;;;;;2.20;2.10;;;26.60;68.40;;;;;;5074803;28;20946;-86
2022/05/19 00:23:30;;;;;;;2.50;2.30;;;26.60;68.40;;;;;;5074637;28;20447;-87
2022/05/19 00:25:57;;;;;;;1.83;1.73;;;26.60;68.30;;;;;;5074666;28;20437;-87
2022/05/19 00:28:25;;;;;;;1.80;1.70;;;26.60;68.30;;;;;;5074601;28;20449;-86
2022/05/19 00:30:52;;;;;;;2.10;2.00;;;26.60;68.40;;;;;;5074675;28;20494;-86
2022/05/19 00:33:19;;;;;;;2.10;2.00;;;26.60;68.50;;;;;;5074561;28;20940;-86
2022/05/19 00:35:46;;;;;;;2.23;2.13;;;26.60;68.40;;;;;;5074319;28;20567;-86
2022/05/19 00:38:13;;;;;;;1.97;1.87;;;26.70;68.50;;;;;;5074348;28;20489;-87
2022/05/19 00:40:45;;;;;;;2.30;2.10;;;26.70;68.30;;;;;;5074182;28;20441;-87
2022/05/19 00:43:12;;;;;;;2.13;2.03;;;26.60;68.20;;;;;;5074326;28;20483;-87
2022/05/19 00:45:44;;;;;;;1.97;1.87;;;26.60;68.30;;;;;;5074299;28;20445;-87
2022/05/19 00:48:18;;;;;;;2.40;2.30;;;26.60;68.30;;;;;;5074194;28;20441;-86
2022/05/19 00:50:50;;;;;;;2.03;1.93;;;26.60;68.40;;;;;;5074224;28;20482;-86
2022/05/19 00:53:28;;;;;;;1.90;1.80;;;26.60;68.50;;;;;;5074142;28;20441;-87
2022/05/19 00:56:00;;;;;;;1.67;1.57;;;26.70;68.60;;;;;;5074063;28;20445;-87
2022/05/19 00:58:32;;;;;;;1.97;1.87;;;26.60;68.40;;;;;;5074058;28;20437;-87
2022/05/19 01:01:01;;;;;;;2.10;2.00;;;26.60;68.30;;;;;;5074014;28;20445;-87
2022/05/19 01:03:33;;;;;;;1.90;1.80;;;26.60;68.40;;;;;;5073925;28;20437;-86
2022/05/19 01:06:08;;;;;;;1.83;1.73;;;26.60;68.30;;;;;;5073969;28;20445;-87
2022/05/19 01:08:39;;;;;;;2.20;2.00;;;26.70;68.50;;;;;;5073988;28;20916;-86
2022/05/19 01:11:07;;;;;;;2.43;2.23;;;26.60;68.30;;;;;;5073839;28;20480;-87
2022/05/19 01:13:35;;;;;;;1.97;1.87;;;26.60;68.30;;;;;;5073685;28;20452;-87
2022/05/19 01:16:05;;;;;;;2.00;1.90;;;26.60;68.40;;;;;;5073750;28;20494;-86
2022/05/19 01:18:33;;;;;;;2.83;2.63;;;26.70;68.40;;;;;;5073636;28;20437;-87
2022/05/19 01:21:01;;;;;;;2.30;2.20;;;26.60;68.30;;;;;;5073654;28;20437;-86
2022/05/19 01:23:37;;;;;;;1.80;1.50;;;26.60;68.20;;;;;;5073403;28;20448;-87
2022/05/19 01:26:15;;;;;;;1.87;1.77;;;26.70;68.20;;;;;;5073744;28;20443;-86
2022/05/19 01:28:45;;;;;;;1.90;1.80;;;26.60;68.20;;;;;;5073583;28;20452;-87
2022/05/19 01:31:28;;;;;;;2.00;1.90;;;26.60;68.30;;;;;;5073449;28;20495;-87
2022/05/19 01:33:55;;;;;;;2.13;1.93;;;26.70;68.10;;;;;;5073219;28;20490;-86
2022/05/19 01:36:22;;;;;;;1.70;1.60;;;26.60;68.30;;;;;;5073442;28;20437;-86
2022/05/19 01:38:57;;;;;;;2.13;2.03;;;26.60;68.10;;;;;;5073329;28;20499;-86
2022/05/19 01:41:31;;;;;;;1.90;1.80;;;26.60;68.10;;;;;;5073399;28;20443;-87
2022/05/19 01:44:13;;;;;;;1.97;1.87;;;26.60;68.10;;;;;;5073194;28;20460;-87
2022/05/19 01:46:44;;;;;;;1.77;1.67;;;26.70;68.10;;;;;;5073290;28;20940;-87
2022/05/19 01:49:17;;;;;;;1.60;1.50;;;26.60;68.10;;;;;;5073447;28;20433;-87
2022/05/19 01:51:52;;;;;;;1.60;1.50;;;26.60;68.10;;;;;;5072442;28;20489;-86
2022/05/19 01:54:24;;;;;;;1.60;1.50;;;26.60;68.20;;;;;;5073199;28;20444;-87
2022/05/19 01:56:57;;;;;;;1.63;1.53;;;26.60;68.00;;;;;;5073354;28;20441;-88
2022/05/19 01:59:33;;;;;;;1.53;1.43;;;26.60;68.00;;;;;;5073332;28;20445;-86
2022/05/19 02:02:08;;;;;;;1.57;1.40;;;26.60;67.90;;;;;;5073006;28;20449;-86
2022/05/19 02:04:40;;;;;;;1.50;1.40;;;26.60;68.00;;;;;;5073118;28;20447;-87
2022/05/19 02:07:11;;;;;;;1.70;1.60;;;26.60;67.90;;;;;;5073257;28;20776;-86
2022/05/19 02:09:44;;;;;;;2.03;1.93;;;26.60;68.00;;;;;;5073162;28;20441;-87
2022/05/19 02:12:12;;;;;;;1.83;1.73;;;26.60;67.90;;;;;;5072927;28;20488;-87
2022/05/19 02:14:45;;;;;;;1.60;1.50;;;26.60;67.80;;;;;;5072888;28;20463;-87
2022/05/19 02:17:15;;;;;;;1.57;1.47;;;26.60;67.80;;;;;;5072998;28;20447;-86
2022/05/19 02:19:45;;;;;;;1.60;1.50;;;26.60;67.70;;;;;;5073142;28;20440;-87
2022/05/19 02:22:16;;;;;;;1.77;1.67;;;26.60;67.90;;;;;;5072991;28;20919;-86
2022/05/19 02:24:50;;;;;;;1.43;1.33;;;26.60;67.70;;;;;;5073031;28;20441;-86
2022/05/19 02:27:32;;;;;;;1.80;1.70;;;26.60;67.60;;;;;;5072903;28;20441;-86
2022/05/19 02:30:02;;;;;;;1.63;1.53;;;26.60;67.70;;;;;;5073296;28;20440;-86
2022/05/19 02:32:29;;;;;;;1.90;1.80;;;26.60;67.70;;;;;;5072848;28;20495;-86
2022/05/19 02:34:56;;;;;;;1.60;1.50;;;26.60;67.60;;;;;;5072683;28;20468;-87
2022/05/19 02:37:23;;;;;;;1.80;1.70;;;26.60;67.60;;;;;;5072737;28;20448;-86
2022/05/19 02:39:50;;;;;;;1.60;1.50;;;26.60;67.60;;;;;;5072811;28;20437;-86
2022/05/19 02:42:17;;;;;;;1.67;1.57;;;26.60;67.60;;;;;;5072691;28;20919;-87
2022/05/19 02:44:44;;;;;;;1.60;1.50;;;26.60;67.50;;;;;;5072618;28;20469;-86
2022/05/19 02:47:12;;;;;;;1.80;1.70;;;26.60;68.40;;;;;;5072790;28;20440;-86
2022/05/19 02:49:39;;;;;;;1.73;1.63;;;26.60;67.40;;;;;;5072591;28;20463;-87
2022/05/19 02:52:06;;;;;;;2.00;1.90;;;26.60;67.40;;;;;;5072645;28;20499;-86
2022/05/19 02:54:33;;;;;;;1.80;1.70;;;26.60;67.50;;;;;;5072451;28;20441;-87
2022/05/19 02:57:00;;;;;;;1.40;1.30;;;26.60;67.40;;;;;;5072696;28;20439;-86
2022/05/19 02:59:27;;;;;;;1.70;1.60;;;26.60;67.40;;;;;;5072662;28;20528;-86
2022/05/19 03:01:54;;;;;;;1.63;1.53;;;26.60;67.30;;;;;;5072990;28;20806;-86
2022/05/19 03:04:22;;;;;;;1.90;1.70;;;26.60;67.30;;;;;;5076158;28;20529;-86
2022/05/19 03:06:49;;;;;;;1.77;1.67;;;26.60;67.30;;;;;;5076109;28;20440;-87
2022/05/19 03:09:15;;;;;;;1.67;1.57;;;26.60;67.20;;;;;;5076074;28;20440;-86
2022/05/19 03:11:42;;;;;;;1.63;1.53;;;26.60;67.10;;;;;;5076158;28;20498;-86
2022/05/19 03:14:09;;;;;;;1.60;1.50;;;26.60;67.20;;;;;;5075990;28;20518;-87
2022/05/19 03:16:38;;;;;;;1.73;1.63;;;26.60;67.10;;;;;;5076054;28;20444;-86
2022/05/19 03:19:05;;;;;;;1.40;1.30;;;26.60;67.00;;;;;;5075947;28;20443;-87
2022/05/19 03:21:33;;;;;;;1.73;1.63;;;26.50;66.90;;;;;;5075950;28;20476;-86
2022/05/19 03:24:00;;;;;;;1.37;1.27;;;26.60;67.10;;;;;;5075862;28;20441;-86
2022/05/19 03:26:27;;;;;;;1.60;1.50;;;26.60;67.00;;;;;;5075888;28;20429;-87
2022/05/19 03:28:54;;;;;;;1.57;1.47;;;26.60;67.00;;;;;;5075906;28;20447;-88
2022/05/19 03:31:21;;;;;;;1.60;1.50;;;26.60;66.90;;;;;;5075563;28;20483;-86
2022/05/19 03:33:47;;;;;;;1.63;1.53;;;26.60;66.90;;;;;;5075740;28;20461;-86
2022/05/19 03:36:14;;;;;;;1.47;1.37;;;26.60;66.80;;;;;;5075716;28;20798;-87
2022/05/19 03:38:42;;;;;;;1.60;1.50;;;26.60;66.70;;;;;;5075768;28;20803;-86
2022/05/19 03:41:09;;;;;;;1.60;1.50;;;26.60;66.70;;;;;;5075414;28;20464;-86
2022/05/19 03:43:36;;;;;;;1.60;1.50;;;26.60;66.70;;;;;;5075386;28;20468;-86
2022/05/19 03:46:04;;;;;;;1.83;1.50;;;26.60;66.70;;;;;;5075525;28;20436;-86
2022/05/19 03:48:33;;;;;;;1.60;1.50;;;26.70;66.70;;;;;;5075405;28;20448;-86
2022/05/19 03:51:00;;;;;;;1.57;1.47;;;26.60;66.50;;;;;;5075466;28;20486;-86
2022/05/19 03:53:27;;;;;;;1.50;1.40;;;26.60;66.50;;;;;;5075290;28;20448;-88
2022/05/19 03:55:56;;;;;;;1.50;1.40;;;26.60;66.50;;;;;;5075363;28;20445;-88
2022/05/19 03:58:23;;;;;;;1.67;1.57;;;26.60;66.50;;;;;;5075142;28;20468;-86
2022/05/19 04:00:50;;;;;;;1.40;1.30;;;26.50;66.40;;;;;;5075164;28;20441;-87
2022/05/19 04:03:17;;;;;;;1.53;1.43;;;26.60;66.40;;;;;;5075156;28;20805;-87
2022/05/19 04:05:44;;;;;;;1.97;1.87;;;26.60;66.40;;;;;;5075289;28;20447;-86
2022/05/19 04:08:11;;;;;;;1.80;1.70;;;26.60;66.40;;;;;;5075120;28;20464;-86
2022/05/19 04:10:42;;;;;;;1.70;1.60;;;26.60;66.40;;;;;;5075048;28;20464;-86
2022/05/19 04:13:10;;;;;;;1.50;1.37;;;26.50;67.10;;;;;;5074261;28;20481;-86
2022/05/19 04:15:37;;;;;;;2.07;1.47;;;26.60;66.40;;;;;;5074650;28;20445;-86
2022/05/19 04:18:05;;;;;;;1.60;1.50;;;26.50;66.20;;;;;;5074951;28;20445;-86
2022/05/19 04:20:32;;;;;;;1.50;1.40;;;26.60;66.30;;;;;;5074889;28;20532;-86
2022/05/19 04:22:59;;;;;;;1.70;1.60;;;26.60;66.30;;;;;;5074845;28;20452;-88
2022/05/19 04:25:26;;;;;;;1.90;1.80;;;26.60;66.20;;;;;;5074724;28;20448;-86
2022/05/19 04:27:53;;;;;;;1.47;1.37;;;26.60;66.20;;;;;;5074763;28;20432;-87
2022/05/19 04:30:21;;;;;;;1.50;1.40;;;26.60;66.20;;;;;;5074548;28;20441;-86
2022/05/19 04:32:48;;;;;;;1.50;1.40;;;26.60;66.20;;;;;;5074582;28;20500;-87
2022/05/19 04:35:16;;;;;;;1.73;1.63;;;26.60;66.20;;;;;;5074369;28;20465;-87
2022/05/19 04:37:43;;;;;;;1.50;1.40;;;26.60;66.30;;;;;;5074455;28;20445;-86
2022/05/19 04:40:11;;;;;;;1.70;1.60;;;26.60;66.20;;;;;;5074404;28;20809;-87
2022/05/19 04:42:39;;;;;;;1.50;1.40;;;26.60;66.20;;;;;;5074301;28;20463;-87
2022/05/19 04:45:07;;;;;;;1.50;1.40;;;26.60;66.20;;;;;;5074306;28;20440;-87
2022/05/19 04:47:35;;;;;;;1.60;1.50;;;26.50;66.10;;;;;;5074319;28;20473;-87
2022/05/19 04:50:02;;;;;;;1.60;1.50;;;26.60;66.20;;;;;;5074577;28;20444;-87
2022/05/19 04:52:29;;;;;;;1.50;1.40;;;26.60;66.20;;;;;;5074062;28;20499;-87
2022/05/19 04:54:56;;;;;;;1.70;1.60;;;26.60;66.10;;;;;;5074207;28;20441;-86
2022/05/19 04:57:23;;;;;;;1.43;1.33;;;26.50;66.10;;;;;;5074127;28;20459;-86
2022/05/19 04:59:49;;;;;;;1.30;1.20;;;26.60;66.10;;;;;;5074040;28;20990;-87
2022/05/19 05:02:16;;;;;;;1.40;1.30;;;26.60;66.10;;;;;;5074135;28;20437;-87
2022/05/19 05:04:44;;;;;;;1.40;1.30;;;26.60;66.10;;;;;;5073928;28;20815;-87
2022/05/19 05:07:11;;;;;;;1.77;1.60;;;26.60;66.00;;;;;;5073987;28;20441;-87
2022/05/19 05:09:38;;;;;;;2.20;1.40;;;26.60;66.00;;;;;;5073887;28;20446;-87
2022/05/19 05:12:06;;;;;;;1.50;1.40;;;26.60;66.00;;;;;;5073728;28;20473;-86
2022/05/19 05:14:33;;;;;;;1.60;1.50;;;26.60;65.90;;;;;;5073789;28;20463;-86
2022/05/19 05:17:00;;;;;;;1.63;1.53;;;26.60;65.90;;;;;;5073766;28;20441;-87
2022/05/19 05:19:27;;;;;;;1.60;1.50;;;26.60;65.90;;;;;;5073820;28;20441;-86
2022/05/19 05:21:57;;;;;;;1.50;1.40;;;26.60;65.90;;;;;;5073656;28;20448;-87
2022/05/19 05:24:24;;;;;;;1.50;1.40;;;26.60;65.90;;;;;;5073547;28;20430;-87
2022/05/19 05:26:51;;;;;;;1.90;1.80;;;26.60;65.90;;;;;;5073523;28;20954;-87
2022/05/19 05:29:19;;;;;;;1.60;1.50;;;26.60;65.90;;;;;;5073544;28;20448;-85
2022/05/19 05:31:46;;;;;;;1.40;1.30;;;26.60;65.80;;;;;;5073512;28;20571;-86
2022/05/19 05:34:13;;;;;;;1.70;1.60;;;26.60;65.90;;;;;;5073098;28;20838;-88
2022/05/19 05:36:40;;;;;;;1.50;1.40;;;26.60;65.90;;;;;;5073687;28;20437;-85
2022/05/19 05:39:08;;;;;;;1.60;1.50;;;26.60;65.80;;;;;;5073397;28;20950;-85
2022/05/19 05:41:35;;;;;;;1.63;1.53;;;26.60;65.80;;;;;;5073130;28;21007;-85
2022/05/19 05:44:02;;;;;;;1.60;1.50;;;26.60;65.80;;;;;;5073286;28;20453;-86
2022/05/19 05:46:29;;;;;;;1.30;1.20;;;26.60;65.90;;;;;;5073349;28;20437;-86
2022/05/19 05:48:56;;;;;;;1.50;1.40;;;26.60;65.90;;;;;;5073326;28;20437;-85
2022/05/19 05:51:22;;;;;;;1.30;1.20;;;26.60;66.10;;;;;;5073209;28;20444;-85
2022/05/19 05:53:49;;;;;;;1.70;1.60;;;26.60;66.10;;;;;;5073121;28;20433;-85
2022/05/19 05:56:19;;;;;;;1.50;1.40;;;26.60;66.10;;;;;;5073285;28;20469;-86
2022/05/19 05:58:47;;;;;;;1.77;1.67;;;26.60;66.10;;;;;;5073476;28;20525;-85
2022/05/19 06:01:15;;;;;;;1.60;1.50;;;26.60;66.10;;;;;;5073163;28;20437;-88
2022/05/19 06:03:44;;;;;;;1.70;1.60;;;26.60;66.20;;;;;;5072987;28;20540;-86
2022/05/19 06:06:11;;;;;;;1.53;1.43;;;26.60;66.70;;;;;;5073254;28;20520;-85
2022/05/19 06:08:38;;;;;;;1.90;1.80;;;26.60;66.20;;;;;;5073119;28;20437;-86
2022/05/19 06:11:06;;;;;;;1.47;1.37;;;26.60;66.30;;;;;;5073083;28;20439;-88
2022/05/19 06:13:34;;;;;;;1.70;1.60;;;26.60;66.30;;;;;;5073048;28;20491;-86
2022/05/19 06:16:02;;;;;;;1.50;1.40;;;26.60;66.30;;;;;;5072938;28;20445;-86
2022/05/19 06:18:28;;;;;;;1.70;1.60;;;26.60;66.30;;;;;;5073102;28;20441;-88
2022/05/19 06:20:55;;;;;;;1.63;1.53;;;26.60;66.30;;;;;;5073038;28;20448;-86
2022/05/19 06:23:23;;;;;;;1.53;1.43;;;26.60;66.30;;;;;;5073027;28;20441;-85
2022/05/19 06:25:50;;;;;;;1.47;1.37;;;26.60;66.40;;;;;;5072952;28;20440;-86
2022/05/19 06:28:17;;;;;;;1.70;1.60;;;26.60;66.20;;;;;;5072876;28;20436;-86
2022/05/19 06:30:46;;;;;;;1.50;1.40;;;26.70;66.40;;;;;;5072908;28;20831;-86
2022/05/19 06:33:17;;;;;;;1.50;1.40;;;26.70;66.30;;;;;;5072641;28;20488;-87
2022/05/19 06:35:44;;;;;;;1.50;1.40;;;26.60;66.20;;;;;;5072650;28;20520;-86
2022/05/19 06:38:11;;;;;;;1.30;1.20;;;26.70;66.50;;;;;;5075810;28;20445;-86
2022/05/19 06:40:38;;;;;;;1.97;1.87;;;26.70;66.50;;;;;;5076813;28;20433;-85
2022/05/19 06:43:09;;;;;;;1.70;1.60;;;26.70;66.60;;;;;;5076674;28;20475;-86
2022/05/19 06:45:36;;;;;;;1.70;1.60;;;26.70;66.60;;;;;;5076806;28;20433;-87
2022/05/19 06:48:05;;;;;;;1.43;1.33;;;26.70;66.60;;;;;;5076665;28;20915;-85
2022/05/19 06:50:33;;;;;;;1.60;1.50;;;26.70;66.50;;;;;;5076466;28;20463;-86
2022/05/19 06:53:03;;;;;;;2.10;1.40;;;26.70;66.60;;;;;;5076377;28;20495;-85
2022/05/19 06:55:31;;;;;;;1.60;1.50;;;26.70;66.60;;;;;;5076508;28;20817;-86
2022/05/19 06:57:58;;;;;;;1.97;1.87;;;26.70;66.60;;;;;;5076448;28;20444;-86
2022/05/19 07:00:27;;;;;;;1.57;1.47;;;26.70;66.60;;;;;;5076413;28;20463;-86
2022/05/19 07:02:57;;;;;;;1.40;1.30;;;26.70;66.60;;;;;;5076332;28;20445;-88
2022/05/19 07:05:29;;;;;;;2.07;1.97;;;26.70;66.60;;;;;;5076326;28;20928;-88
2022/05/19 07:07:56;;;;;;;1.70;1.60;;;26.70;66.50;;;;;;5076455;28;20452;-86
2022/05/19 07:10:26;;;;;;;1.60;1.50;;;26.70;66.50;;;;;;5076154;28;20437;-86
2022/05/19 07:12:54;;;;;;;1.67;1.57;;;26.70;66.40;;;;;;5075874;28;20520;-86
2022/05/19 07:15:21;;;;;;;1.53;1.43;;;26.70;66.50;;;;;;5076063;28;20433;-86
2022/05/19 07:17:49;;;;;;;1.67;1.57;;;26.70;66.50;;;;;;5076029;28;20451;-86
2022/05/19 07:23:04;;;;;;;1.50;1.40;;;26.70;66.50;;;;;;5075771;28;20527;-86
2022/05/19 07:25:31;;;;;;;1.63;1.53;;;26.70;66.60;;;;;;5075856;28;20440;-86
2022/05/19 07:27:58;;;;;;;1.43;1.33;;;26.70;66.50;;;;;;5075892;28;20437;-86
2022/05/19 07:30:25;;;;;;;1.50;1.40;;;26.70;66.50;;;;;;5075935;28;20464;-86
2022/05/19 07:32:54;;;;;;;1.40;1.30;;;26.70;66.60;;;;;;5075743;28;20491;-86
2022/05/19 07:35:22;;;;;;;1.40;1.30;;;26.70;66.50;;;;;;5075511;28;20476;-86
2022/05/19 07:37:48;;;;;;;1.50;1.40;;;26.70;66.60;;;;;;5075620;28;20798;-86
2022/05/19 07:40:17;;;;;;;1.40;1.30;;;26.80;66.60;;;;;;5075637;28;20440;-86
2022/05/19 07:42:43;;;;;;;1.73;1.63;;;26.80;66.60;;;;;;5075626;28;20851;-86
2022/05/19 07:45:11;;;;;;;1.60;1.50;;;26.80;66.60;;;;;;5075756;28;20441;-86
2022/05/19 07:47:38;;;;;;;1.77;1.67;;;26.80;66.50;;;;;;5075394;28;20437;-85
2022/05/19 07:50:06;;;;;;;1.40;1.30;;;26.80;66.50;;;;;;5074527;28;20870;-86
2022/05/19 07:52:33;;;;;;;1.40;1.30;;;26.80;66.60;;;;;;5075111;28;20975;-86
2022/05/19 07:55:00;;;;;;;1.60;1.50;;;26.80;66.60;;;;;;5075377;28;20443;-86
2022/05/19 07:57:28;;;;;;;1.50;1.40;;;26.80;66.60;;;;;;5075471;28;20455;-86
2022/05/19 07:59:55;;;;;;;1.57;1.47;;;26.80;66.50;;;;;;5075386;28;20451;-85
2022/05/19 08:02:22;;;;;;;2.13;1.50;;;26.80;66.50;;;;;;5075190;28;20935;-88
2022/05/19 08:04:49;;;;;;;1.77;1.67;;;26.80;66.50;;;;;;5075260;28;20473;-86
2022/05/19 08:07:16;;;;;;;1.53;1.43;;;26.80;66.50;;;;;;5075139;28;20524;-86
2022/05/19 08:18:09;;;;;;;1.50;1.40;;;26.80;66.50;;;;;;5059016;28;20536;-88
2022/05/19 08:20:39;;;;;;;1.60;1.50;;;26.80;66.60;;;;;;5074960;28;20449;-86
2022/05/19 08:23:06;;;;;;;1.40;1.30;;;26.80;66.60;;;;;;5074755;28;20441;-86
2022/05/19 08:25:33;;;;;;;1.93;1.53;;;26.80;66.50;;;;;;5074775;28;20527;-86
2022/05/19 08:28:01;;;;;;;1.80;1.70;;;26.80;66.40;;;;;;5074789;28;21016;-86
2022/05/19 08:30:28;;;;;;;1.73;1.63;;;26.80;66.40;;;;;;5074832;28;20428;-86
2022/05/19 08:32:55;;;;;;;1.60;1.50;;;26.80;66.50;;;;;;5074775;28;20563;-86
2022/05/19 08:35:22;;;;;;;1.80;1.70;;;26.80;66.40;;;;;;5074343;28;21040;-89
2022/05/19 08:37:50;;;;;;;1.33;1.23;;;26.90;66.50;;;;;;5074599;28;20437;-88
2022/05/19 08:40:18;;;;;;;1.60;1.50;;;26.90;66.40;;;;;;5074270;28;20494;-86
2022/05/19 08:42:49;;;;;;;1.90;1.80;;;26.80;66.30;;;;;;5074467;28;20465;-86
2022/05/19 08:45:23;;;;;;;1.43;1.33;;;26.90;66.40;;;;;;5074686;28;20429;-87
2022/05/19 08:48:01;;;;;;;1.77;1.67;;;26.90;66.30;;;;;;5074313;28;20781;-85
2022/05/19 08:50:34;;;;;;;1.70;1.60;;;26.90;66.40;;;;;;5074330;28;20437;-86
2022/05/19 08:53:03;;;;;;;1.60;1.50;;;26.90;66.40;;;;;;5074265;28;20477;-86
2022/05/19 08:55:30;;;;;;;1.50;1.30;;;26.80;66.30;;;;;;5074192;28;20433;-87
2022/05/19 08:58:10;;;;;;;1.40;1.30;;;26.90;66.40;;;;;;5074232;28;20522;-86
2022/05/19 09:00:41;;;;;;;1.67;1.57;;;26.90;66.40;;;;;;5073739;28;20441;-89
2022/05/19 09:03:20;;;;;;;1.63;1.53;;;26.80;66.40;;;;;;5074146;28;20437;-86
2022/05/19 09:06:15;;;;;;;1.70;1.60;;;26.90;66.50;;;;;;5074265;28;20436;-86
2022/05/19 09:08:59;;;;;;;1.63;1.53;;;26.90;66.40;;;;;;5074068;28;20793;-87
2022/05/19 09:11:38;;;;;;;1.87;1.77;;;26.90;66.50;;;;;;5073913;28;20520;-86
2022/05/19 09:14:16;;;;;;;1.50;1.40;;;26.90;66.60;;;;;;5073586;28;20550;-88
2022/05/19 09:16:44;;;;;;;1.80;1.70;;;26.90;66.50;;;;;;5073964;28;20462;-85
2022/05/19 09:19:16;;;;;;;1.53;1.43;;;26.90;66.40;;;;;;5073648;28;20440;-86
2022/05/19 09:21:44;;;;;;;1.60;1.50;;;26.90;66.40;;;;;;5073864;28;20487;-86
2022/05/19 09:24:11;;;;;;;1.40;1.30;;;26.90;66.40;;;;;;5073704;28;20932;-86
2022/05/19 09:26:52;;;;;;;1.60;1.50;;;26.90;66.40;;;;;;5073529;28;20454;-86
2022/05/19 09:29:22;;;;;;;1.83;1.73;;;27.00;66.30;;;;;;5073639;28;20920;-86
2022/05/19 09:31:53;;;;;;;1.43;1.20;;;26.90;66.20;;;;;;5073401;28;20441;-85
2022/05/19 09:34:24;;;;;;;1.43;1.33;;;26.90;66.10;;;;;;5073244;28;21014;-86
2022/05/19 09:37:06;;;;;;;1.50;1.40;;;27.00;66.20;;;;;;5073426;28;20440;-86
2022/05/19 09:39:35;;;;;;;2.00;1.80;;;27.00;66.20;;;;;;5073333;28;20441;-86
2022/05/19 09:42:08;;;;;;;1.43;1.30;;;27.00;66.10;;;;;;5073560;28;20451;-86
2022/05/19 09:44:38;;;;;;;1.77;1.67;;;27.00;66.20;;;;;;5073349;28;21006;-86
2022/05/19 09:47:24;;;;;;;1.37;1.27;;;27.00;66.10;;;;;;5073392;28;20432;-86
2022/05/19 09:49:56;;;;;;;1.40;1.30;;;27.10;66.10;;;;;;5073214;28;20433;-86
2022/05/19 09:52:27;;;;;;;1.60;1.50;;;27.00;66.10;;;;;;5073411;28;20466;-86
2022/05/19 09:54:56;;;;;;;1.50;1.40;;;27.10;66.20;;;;;;5073269;28;20480;-86
2022/05/19 09:57:28;;;;;;;1.50;1.40;;;27.10;66.00;;;;;;5073354;28;20844;-89
2022/05/19 09:59:59;;;;;;;1.50;1.40;;;27.10;66.00;;;;;;5073442;28;20431;-86
2022/05/19 10:02:33;;;;;;;1.77;1.67;;;27.10;66.00;;;;;;5073194;28;20928;-86
2022/05/19 10:05:02;;;;;;;1.70;1.60;;;27.10;66.00;;;;;;5073246;28;20941;-86
2022/05/19 10:07:36;;;;;;;1.30;1.20;;;27.10;66.00;;;;;;5073135;28;20463;-86
2022/05/19 10:10:04;;;;;;;1.50;1.40;;;27.10;66.00;;;;;;5073123;28;20527;-86
2022/05/19 10:12:42;;;;;;;1.53;1.43;;;27.10;65.90;;;;;;5071747;28;20441;-86
2022/05/19 10:15:13;;;;;;;1.70;1.50;;;27.10;65.90;;;;;;5073076;28;20449;-89
2022/05/19 10:17:55;;;;;;;1.60;1.50;;;27.20;66.00;;;;;;5073129;28;20437;-85
2022/05/19 10:20:24;;;;;;;1.30;1.20;;;27.20;66.00;;;;;;5072982;28;20444;-86
2022/05/19 10:23:05;;;;;;;1.60;1.50;;;27.20;66.00;;;;;;5072974;28;20514;-86
2022/05/19 10:25:49;;;;;;;1.70;1.60;;;27.20;66.00;;;;;;5073017;28;20440;-87
2022/05/19 10:31:26;;;;;;;1.70;1.60;;;27.20;66.10;;;;;;5072958;28;20424;-87
2022/05/19 10:34:24;;;;;;;1.73;1.63;;;27.20;66.20;;;;;;5072705;28;20491;-86
2022/05/19 10:36:56;;;;;;;1.63;1.53;;;27.30;66.10;;;;;;5072800;28;20787;-86
2022/05/19 10:39:41;;;;;;;1.40;1.30;;;27.20;66.20;;;;;;5072945;28;20791;-86
2022/05/19 10:42:16;;;;;;;1.33;1.23;;;27.30;66.10;;;;;;5072906;28;20448;-86
2022/05/19 10:45:10;;;;;;;1.57;1.47;;;27.30;66.00;;;;;;5072868;28;20446;-86
2022/05/19 10:47:48;;;;;;;1.50;1.40;;;27.30;66.00;;;;;;5064934;28;20464;-87
2022/05/19 10:50:26;;;;;;;1.80;1.70;;;27.30;66.00;;;;;;5072771;28;20436;-86
2022/05/19 10:53:21;;;;;;;1.73;1.63;;;27.40;66.10;;;;;;5072679;28;20433;-86
2022/05/19 10:56:06;;;;;;;1.77;1.67;;;27.30;66.00;;;;;;5072718;28;20437;-86
2022/05/19 10:58:47;;;;;;;1.50;1.40;;;27.40;66.10;;;;;;5072742;28;20453;-86
2022/05/19 11:01:25;;;;;;;1.70;1.60;;;27.40;66.00;;;;;;5072546;28;20445;-86
2022/05/19 11:04:26;;;;;;;1.40;1.30;;;27.40;66.10;;;;;;5072588;28;20993;-86
2022/05/19 11:07:11;;;;;;;1.60;1.50;;;27.50;66.10;;;;;;5068428;28;20445;-87
2022/05/19 11:09:47;;;;;;;1.60;1.43;;;27.40;66.20;;;;;;5072605;28;20447;-86
2022/05/19 11:12:25;;;;;;;1.40;1.30;;;27.40;66.20;;;;;;5072599;28;20923;-88
2022/05/19 11:15:02;;;;;;;1.47;1.37;;;27.50;66.20;;;;;;5072492;28;20538;-86
2022/05/19 11:17:40;;;;;;;1.63;1.53;;;27.40;66.10;;;;;;5072593;28;20947;-86
2022/05/19 11:20:12;;;;;;;1.70;1.60;;;27.50;66.20;;;;;;5072442;28;20456;-87
2022/05/19 11:22:41;;;;;;;1.47;1.37;;;27.50;66.10;;;;;;5072642;28;20532;-86
2022/05/19 11:28:02;;;;;;;2.00;1.40;;;27.50;66.20;;;;;;5076125;28;20450;-86
2022/05/19 11:30:34;;;;;;;1.60;1.50;;;27.50;66.30;;;;;;5075932;28;20494;-86
2022/05/19 11:33:06;;;;;;;1.57;1.47;;;27.50;66.30;;;;;;5075794;28;20532;-86
2022/05/19 11:35:39;;;;;;;1.50;1.40;;;27.50;66.30;;;;;;5075681;28;20500;-86
2022/05/19 11:38:18;;;;;;;1.70;1.60;;;27.50;66.40;;;;;;5075896;28;20436;-86
2022/05/19 11:40:49;;;;;;;1.50;1.40;;;27.50;66.40;;;;;;5075712;28;20916;-88
2022/05/19 11:43:27;;;;;;;1.80;1.70;;;27.50;66.40;;;;;;5075600;28;20453;-86
2022/05/19 11:46:00;;;;;;;1.70;1.60;;;27.50;66.50;;;;;;5075903;28;20527;-86
2022/05/19 11:57:08;;;;;;;1.70;1.60;;;27.40;66.60;;;;;;5075628;28;20416;-86
2022/05/19 11:59:37;;;;;;;1.63;1.53;;;27.40;66.70;;;;;;5075396;28;20441;-86
2022/05/19 12:02:06;;;;;;;1.80;1.70;;;27.40;66.80;;;;;;5075349;28;20498;-86
2022/05/19 12:04:37;;;;;;;1.70;1.60;;;27.40;66.80;;;;;;5075275;28;20440;-86
2022/05/19 12:07:15;;;;;;;1.60;1.50;;;27.40;66.80;;;;;;5075328;28;20985;-86
2022/05/19 12:09:49;;;;;;;1.40;1.30;;;27.40;66.60;;;;;;5075175;28;20763;-86
2022/05/19 12:12:21;;;;;;;1.50;1.40;;;27.40;66.50;;;;;;5074982;28;20441;-86
2022/05/19 12:14:50;;;;;;;1.50;1.40;;;27.40;66.50;;;;;;5074962;28;20488;-86
2022/05/19 12:17:33;;;;;;;1.47;1.37;;;27.40;66.50;;;;;;5075101;28;20533;-86
2022/05/19 12:20:03;;;;;;;1.93;1.83;;;27.50;66.40;;;;;;5074919;28;20470;-86
2022/05/19 12:22:34;;;;;;;1.70;1.60;;;27.50;66.60;;;;;;5074900;28;20440;-86
2022/05/19 12:25:20;;;;;;;1.60;1.50;;;27.50;66.60;;;;;;5074825;28;20447;-88
2022/05/19 12:27:56;;;;;;;1.63;1.53;;;27.50;66.40;;;;;;5074791;28;20445;-86
2022/05/19 12:33:24;;;;;;;1.50;1.40;;;27.50;66.50;;;;;;5074706;28;20483;-86
2022/05/19 12:35:53;;;;;;;1.77;1.67;;;27.50;66.60;;;;;;5074112;28;20480;-86
2022/05/19 12:38:39;;;;;;;1.53;1.43;;;27.50;66.60;;;;;;5074592;28;20433;-86
2022/05/19 12:41:09;;;;;;;1.67;1.57;;;27.50;66.50;;;;;;5074562;28;20443;-86
2022/05/19 12:43:38;;;;;;;1.60;1.50;;;27.50;66.60;;;;;;5074186;28;20461;-86
2022/05/19 12:46:08;;;;;;;4.33;2.10;;;27.50;66.60;;;;;;5074577;28;20441;-86
2022/05/19 12:49:16;;;;;;;1.50;1.40;;;27.50;66.60;;;;;;5074355;28;20437;-86
2022/05/19 12:51:53;;;;;;;2.00;1.90;;;27.50;66.50;;;;;;5074390;28;20460;-86
2022/05/19 12:54:20;;;;;;;1.70;1.60;;;27.50;66.70;;;;;;5074124;28;20480;-86
2022/05/19 12:57:27;;;;;;;1.57;1.47;;;27.50;66.70;;;;;;5074085;28;20437;-88
2022/05/19 13:00:12;;;;;;;1.40;1.30;;;27.50;66.50;;;;;;5074100;28;20436;-87
2022/05/19 13:02:45;;;;;;;1.60;1.50;;;27.50;66.60;;;;;;5074082;28;20790;-86
2022/05/19 13:05:21;;;;;;;2.53;2.33;;;27.50;66.70;;;;;;5073982;28;20444;-86
2022/05/19 13:07:51;;;;;;;1.90;1.80;;;27.50;66.70;;;;;;5074348;28;20433;-86
2022/05/19 13:10:21;;;;;;;2.00;1.90;;;27.50;66.90;;;;;;5073950;28;20429;-87
2022/05/19 13:13:00;;;;;;;2.00;1.90;;;27.50;67.00;;;;;;5073607;28;20449;-87
2022/05/19 13:15:30;;;;;;;1.50;1.40;;;27.50;67.00;;;;;;5073765;28;20481;-87
2022/05/19 13:18:00;;;;;;;1.80;1.70;;;27.50;67.10;;;;;;5073880;28;20927;-86
2022/05/19 13:20:32;;;;;;;1.60;1.50;;;27.50;67.20;;;;;;5073666;28;20437;-86
2022/05/19 13:23:03;;;;;;;1.80;1.70;;;27.50;67.10;;;;;;5073683;28;21030;-86
2022/05/19 13:25:33;;;;;;;2.00;1.90;;;27.40;67.10;;;;;;5073844;28;20441;-86
2022/05/19 13:30:56;;;;;;;1.77;1.67;;;27.50;67.30;;;;;;5073798;28;20428;-86
2022/05/19 13:33:25;;;;;;;1.60;1.50;;;27.40;67.30;;;;;;5073613;28;20469;-87
2022/05/19 13:36:05;;;;;;;1.53;1.40;;;27.40;67.20;;;;;;5073397;28;20484;-86
2022/05/19 13:38:32;;;;;;;1.40;1.30;;;27.40;67.20;;;;;;5073826;28;20440;-86